createdAt,value
2019-03-08T00:03:29.646Z,9.30
2019-03-08T00:07:32.644Z,9.10
2019-03-08T00:11:36.879Z,9.20
2019-03-08T00:15:39.971Z,9.30
2019-03-08T00:19:43.970Z,9.20
2019-03-08T00:23:46.962Z,9.40
2019-03-08T00:27:49.998Z,9.30
2019-03-08T00:31:52.993Z,9.30
2019-03-08T00:35:56.091Z,9.40
2019-03-08T00:40:00.429Z,9.40
2019-03-08T00:44:03.417Z,9.40
2019-03-08T00:48:06.450Z,9.50
2019-03-08T00:52:09.461Z,9.60
2019-03-08T00:56:12.466Z,9.70
2019-03-08T01:00:18.372Z,9.70
2019-03-08T01:04:21.372Z,9.60
2019-03-08T01:08:24.373Z,9.70
2019-03-08T01:12:28.543Z,9.70
2019-03-08T01:16:31.643Z,9.70
2019-03-08T01:20:34.682Z,9.70
2019-03-08T01:24:38.001Z,9.60
2019-03-08T01:28:40.998Z,9.50
2019-03-08T01:32:44.010Z,9.40
2019-03-08T01:36:47.042Z,9.40
2019-03-08T01:40:50.040Z,9.30
2019-03-08T01:44:53.041Z,9.10
2019-03-08T01:48:56.036Z,9.10
2019-03-08T01:52:59.035Z,9.20
2019-03-08T01:57:02.035Z,9.20
2019-03-08T02:01:05.048Z,9.30
2019-03-08T02:05:08.355Z,9.30
2019-03-08T02:09:11.557Z,9.40
2019-03-08T02:13:14.935Z,9.30
2019-03-08T02:17:17.939Z,9.30
2019-03-08T02:21:20.934Z,9.30
2019-03-08T02:25:23.931Z,9.30
2019-03-08T02:29:26.926Z,9.50
2019-03-08T02:33:29.935Z,9.40
2019-03-08T02:37:32.930Z,9.40
2019-03-08T02:41:35.932Z,9.00
2019-03-08T02:45:39.234Z,9.10
2019-03-08T02:49:42.240Z,9.10
2019-03-08T02:53:45.243Z,9.00
2019-03-08T02:57:48.243Z,9.00
2019-03-08T03:01:51.258Z,8.90
2019-03-08T03:05:54.258Z,8.80
2019-03-08T03:09:57.274Z,8.70
2019-03-08T03:14:03.228Z,8.50
2019-03-08T03:18:06.238Z,8.50
2019-03-08T03:22:09.223Z,8.50
2019-03-08T03:26:12.214Z,8.40
2019-03-08T03:30:18.432Z,8.40
2019-03-08T03:34:21.414Z,8.40
2019-03-08T03:38:24.429Z,8.30
2019-03-08T03:42:27.461Z,8.20
2019-03-08T03:46:30.554Z,8.10
2019-03-08T03:50:33.546Z,8.20
2019-03-08T03:54:36.550Z,8.20
2019-03-08T03:58:39.563Z,8.10
2019-03-08T04:02:42.550Z,8.10
2019-03-08T04:06:45.850Z,8.10
2019-03-08T04:10:48.921Z,8.00
2019-03-08T04:14:54.219Z,8.00
2019-03-08T04:18:57.210Z,7.90
2019-03-08T04:23:00.256Z,8.00
2019-03-08T04:27:03.245Z,8.00
2019-03-08T04:31:06.242Z,8.10
2019-03-08T04:35:09.230Z,8.00
2019-03-08T04:39:12.226Z,8.00
2019-03-08T04:43:16.244Z,8.10
2019-03-08T04:47:19.246Z,8.10
2019-03-08T04:51:22.548Z,8.20
2019-03-08T04:55:25.548Z,8.20
2019-03-08T04:59:28.545Z,8.40
2019-03-08T05:03:31.553Z,8.30
2019-03-08T05:07:34.554Z,8.50
2019-03-08T05:11:37.542Z,8.50
2019-03-08T05:15:41.722Z,8.50
2019-03-08T05:19:44.754Z,8.50
2019-03-08T05:23:47.765Z,8.40
2019-03-08T05:27:50.774Z,8.50
2019-03-08T05:31:53.774Z,8.60
2019-03-08T05:35:57.186Z,8.60
2019-03-08T05:40:00.389Z,8.50
2019-03-08T05:44:03.526Z,8.60
2019-03-08T05:48:06.535Z,8.50
2019-03-08T05:52:09.537Z,8.50
2019-03-08T05:56:12.550Z,8.40
2019-03-08T06:00:17.933Z,8.60
2019-03-08T06:04:20.933Z,8.60
2019-03-08T06:08:23.981Z,8.60
2019-03-08T06:12:27.012Z,8.60
2019-03-08T06:16:31.445Z,8.70
2019-03-08T06:20:34.549Z,8.50
2019-03-08T06:24:40.562Z,8.60
2019-03-08T06:28:43.973Z,8.70
2019-03-08T06:32:47.098Z,8.80
2019-03-08T06:36:50.107Z,8.80
2019-03-08T06:40:53.127Z,8.90
2019-03-08T06:44:56.230Z,9.00
2019-03-08T06:48:59.261Z,9.00
2019-03-08T06:53:02.847Z,9.00
2019-03-08T06:57:05.864Z,9.20
2019-03-08T07:01:09.953Z,9.20
2019-03-08T07:05:12.982Z,9.30
2019-03-08T07:09:15.998Z,9.40
2019-03-08T07:13:19.021Z,9.30
2019-03-08T07:17:22.958Z,9.30
2019-03-08T07:21:28.172Z,9.40
2019-03-08T07:25:52.598Z,9.40
2019-03-08T07:29:59.309Z,9.20
2019-03-08T07:34:04.668Z,9.40
2019-03-08T07:38:29.066Z,9.40
2019-03-08T07:42:40.958Z,9.40
2019-03-08T07:46:51.946Z,9.30
2019-03-08T07:51:13.490Z,9.30
2019-03-08T07:55:24.303Z,9.50
2019-03-08T07:59:31.987Z,9.70
2019-03-08T08:03:48.936Z,9.90
2019-03-08T08:07:53.850Z,10.10
2019-03-08T08:12:15.046Z,10.20
2019-03-08T08:16:23.066Z,10.40
2019-03-08T08:20:37.789Z,10.60
2019-03-08T08:24:45.733Z,10.60
2019-03-08T08:28:59.839Z,10.70
2019-03-08T08:33:16.794Z,11.00
2019-03-08T08:37:27.711Z,11.30
2019-03-08T08:41:50.791Z,11.80
2019-03-08T08:46:10.704Z,11.70
2019-03-08T08:50:21.555Z,11.70
2019-03-08T08:54:26.435Z,11.20
2019-03-08T08:58:49.682Z,10.90
2019-03-08T09:03:00.598Z,10.60
2019-03-08T09:07:05.756Z,10.40
2019-03-08T09:11:13.791Z,10.20
2019-03-08T09:15:24.735Z,10.10
2019-03-08T09:19:29.678Z,10.20
2019-03-08T09:23:35.851Z,10.20
2019-03-08T09:27:43.834Z,10.10
2019-03-08T09:31:51.584Z,10.00
2019-03-08T09:36:02.340Z,9.90
2019-03-08T09:40:21.234Z,9.90
2019-03-08T09:44:26.174Z,9.80
2019-03-08T09:48:48.837Z,9.80
2019-03-08T09:52:55.170Z,9.70
2019-03-08T09:57:03.049Z,9.60
2019-03-08T10:01:16.327Z,9.80
2019-03-08T10:05:17.386Z,9.70
2019-03-08T10:09:22.722Z,9.80
2019-03-08T10:13:36.518Z,9.80
2019-03-08T10:17:47.209Z,9.80
2019-03-08T10:21:53.007Z,10.00
2019-03-08T10:26:02.627Z,10.10
2019-03-08T10:30:10.737Z,9.90
2019-03-08T10:34:18.207Z,10.10
2019-03-08T10:38:40.891Z,10.00
2019-03-08T10:42:54.473Z,10.10
2019-03-08T10:47:08.445Z,10.00
2019-03-08T10:51:24.950Z,9.70
2019-03-08T10:55:38.577Z,10.00
2019-03-08T10:59:43.963Z,9.90
2019-03-08T11:04:00.806Z,9.80
2019-03-08T11:08:05.803Z,10.00
2019-03-08T11:12:10.713Z,10.70
2019-03-08T11:16:18.168Z,11.60
2019-03-08T11:20:38.346Z,12.10
2019-03-08T11:24:43.260Z,12.40
2019-03-08T11:29:05.654Z,12.50
2019-03-08T11:33:10.553Z,12.20
2019-03-08T11:37:24.510Z,12.80
2019-03-08T11:41:35.256Z,12.70
2019-03-08T11:45:51.915Z,13.00
2019-03-08T11:49:57.326Z,13.30
2019-03-08T11:54:14.354Z,14.00
2019-03-08T11:58:27.972Z,14.20
2019-03-08T12:02:38.066Z,14.30
2019-03-08T12:06:59.079Z,14.00
2019-03-08T12:11:21.300Z,13.90
2019-03-08T12:15:26.212Z,14.40
2019-03-08T12:19:43.086Z,14.80
2019-03-08T12:23:48.270Z,14.40
2019-03-08T12:27:58.984Z,14.30
2019-03-08T12:32:10.865Z,13.90
2019-03-08T12:36:15.813Z,13.90
2019-03-08T12:40:20.893Z,14.40
2019-03-08T12:44:34.753Z,14.40
2019-03-08T12:48:42.434Z,14.40
2019-03-08T12:52:59.246Z,14.10
2019-03-08T12:57:04.153Z,13.50
2019-03-08T13:01:20.863Z,13.10
2019-03-08T13:05:42.192Z,12.90
2019-03-08T13:09:48.261Z,13.00
2019-03-08T13:13:51.302Z,13.30
2019-03-08T13:17:54.307Z,13.30
2019-03-08T13:21:57.335Z,13.50
2019-03-08T13:26:00.400Z,13.30
2019-03-08T13:30:07.276Z,13.40
2019-03-08T13:34:11.519Z,13.90
2019-03-08T13:38:14.540Z,14.60
2019-03-08T13:42:17.544Z,14.90
2019-03-08T13:46:20.903Z,14.50
2019-03-08T13:50:24.037Z,13.50
2019-03-08T13:54:28.145Z,13.30
2019-03-08T13:58:36.939Z,13.90
2019-03-08T14:02:40.987Z,13.30
2019-03-08T14:06:44.016Z,12.60
2019-03-08T14:10:47.112Z,12.60
2019-03-08T14:14:50.126Z,12.70
2019-03-08T14:18:53.196Z,12.40
2019-03-08T14:22:56.415Z,12.40
2019-03-08T14:26:59.482Z,12.50
2019-03-08T14:31:04.415Z,12.70
2019-03-08T14:35:12.663Z,12.70
2019-03-08T14:39:21.542Z,12.80
2019-03-08T14:43:39.484Z,13.20
2019-03-08T14:47:42.601Z,13.30
2019-03-08T14:51:48.180Z,13.50
2019-03-08T14:55:55.195Z,13.30
2019-03-08T14:59:56.688Z,13.20
2019-03-08T15:03:59.745Z,13.20
2019-03-08T15:08:03.761Z,13.50
2019-03-08T15:12:13.603Z,13.50
2019-03-08T15:16:13.925Z,13.40
2019-03-08T15:20:18.132Z,13.10
2019-03-08T15:24:21.442Z,12.90
2019-03-08T15:28:24.446Z,12.80
2019-03-08T15:32:28.500Z,12.90
2019-03-08T15:36:32.046Z,12.80
2019-03-08T15:40:35.084Z,12.70
2019-03-08T15:44:38.177Z,12.70
2019-03-08T15:48:41.259Z,12.50
2019-03-08T15:52:52.525Z,12.50
2019-03-08T15:56:55.535Z,12.30
2019-03-08T16:01:00.446Z,12.30
2019-03-08T16:05:06.713Z,12.20
2019-03-08T16:09:09.817Z,11.90
2019-03-08T16:13:12.941Z,12.00
2019-03-08T16:17:16.930Z,11.70
2019-03-08T16:21:19.981Z,11.50
2019-03-08T16:25:22.985Z,11.30
2019-03-08T16:29:25.966Z,11.40
2019-03-08T16:33:39.734Z,11.50
2019-03-08T16:38:01.964Z,11.30
2019-03-08T16:42:13.116Z,11.40
2019-03-08T16:46:27.278Z,11.30
2019-03-08T16:50:35.345Z,11.20
2019-03-08T16:54:42.847Z,11.00
2019-03-08T16:58:53.474Z,10.80
2019-03-08T17:03:04.167Z,10.50
2019-03-08T17:07:21.155Z,10.50
2019-03-08T17:11:26.067Z,10.40
2019-03-08T17:15:42.871Z,10.40
2019-03-08T17:19:50.675Z,10.50
2019-03-08T17:24:12.461Z,10.50
2019-03-08T17:28:18.773Z,10.30
2019-03-08T17:32:23.751Z,10.40
2019-03-08T17:36:45.170Z,10.30
2019-03-08T17:40:52.815Z,10.20
2019-03-08T17:44:57.743Z,10.10
2019-03-08T17:49:05.487Z,10.20
2019-03-08T17:53:10.918Z,10.30
2019-03-08T17:57:24.844Z,10.30
2019-03-08T18:01:33.161Z,10.20
2019-03-08T18:05:52.859Z,10.40
2019-03-08T18:10:14.260Z,10.40
2019-03-08T18:14:35.885Z,10.50
2019-03-08T18:18:47.606Z,10.30
2019-03-08T18:23:08.891Z,10.30
2019-03-08T18:27:13.790Z,10.20
2019-03-08T18:31:35.457Z,10.30
2019-03-08T18:35:52.470Z,10.20
2019-03-08T18:39:57.408Z,10.20
2019-03-08T18:44:11.399Z,10.10
2019-03-08T18:48:19.518Z,10.10
2019-03-08T18:52:27.251Z,10.10
2019-03-08T18:56:44.251Z,10.10
2019-03-08T19:01:06.916Z,9.80
2019-03-08T19:05:23.862Z,9.70
2019-03-08T19:09:34.366Z,9.90
2019-03-08T19:13:41.799Z,9.90
2019-03-08T19:17:46.811Z,10.00
2019-03-08T19:21:54.226Z,10.10
2019-03-08T19:26:05.078Z,10.20
2019-03-08T19:30:13.714Z,10.20
2019-03-08T19:34:21.382Z,10.20
2019-03-08T19:38:32.491Z,10.30
2019-03-08T19:42:40.335Z,10.20
2019-03-08T19:46:45.859Z,10.10
2019-03-08T19:51:07.366Z,10.20
2019-03-08T19:55:18.316Z,9.90
2019-03-08T19:59:32.070Z,9.90
2019-03-08T20:03:37.013Z,10.00
2019-03-08T20:07:44.788Z,10.00
2019-03-08T20:12:01.579Z,10.10
2019-03-08T20:16:09.040Z,10.20
2019-03-08T20:20:20.328Z,10.30
2019-03-08T20:24:43.100Z,10.20
2019-03-08T20:29:02.976Z,10.20
2019-03-08T20:33:08.978Z,10.20
2019-03-08T20:37:13.928Z,10.20
2019-03-08T20:41:21.691Z,10.10
2019-03-08T20:45:26.591Z,10.00
2019-03-08T20:49:30.199Z,9.90
2019-03-08T20:53:33.210Z,9.80
2019-03-08T20:57:36.221Z,9.80
2019-03-08T21:01:39.233Z,9.80
2019-03-08T21:05:42.231Z,9.80
2019-03-08T21:09:45.444Z,9.80
2019-03-08T21:13:48.473Z,9.80
2019-03-08T21:17:51.458Z,9.70
2019-03-08T21:21:54.488Z,9.80
2019-03-08T21:25:57.583Z,9.90
2019-03-08T21:30:00.588Z,9.70
2019-03-08T21:34:03.607Z,9.80
2019-03-08T21:38:06.627Z,9.80
2019-03-08T21:42:09.647Z,9.80
2019-03-08T21:46:12.643Z,9.70
2019-03-08T21:50:16.954Z,9.70
2019-03-08T21:54:19.984Z,9.80
2019-03-08T21:58:23.074Z,9.70
2019-03-08T22:02:26.091Z,9.80
2019-03-08T22:06:29.075Z,9.80
2019-03-08T22:10:37.124Z,9.70
2019-03-08T22:14:41.287Z,9.70
2019-03-08T22:18:44.307Z,9.70
2019-03-08T22:22:47.324Z,9.70
2019-03-08T22:26:50.343Z,9.60
2019-03-08T22:30:53.351Z,9.70
2019-03-08T22:34:56.494Z,9.60
2019-03-08T22:38:59.515Z,9.80
2019-03-08T22:43:02.515Z,9.60
2019-03-08T22:47:05.534Z,9.80
2019-03-08T22:51:09.339Z,9.70
2019-03-08T22:55:13.651Z,9.80
2019-03-08T22:59:16.682Z,9.50
2019-03-08T23:03:21.483Z,9.70
2019-03-08T23:07:27.449Z,9.60
2019-03-08T23:11:30.455Z,9.60
2019-03-08T23:15:33.532Z,9.60
2019-03-08T23:19:36.529Z,9.70
2019-03-08T23:23:39.868Z,9.60
2019-03-08T23:27:50.542Z,9.50
2019-03-08T23:31:55.463Z,9.50
2019-03-08T23:35:58.478Z,9.50
2019-03-08T23:40:02.070Z,9.50
2019-03-08T23:44:05.259Z,9.50
2019-03-08T23:48:08.263Z,9.40
2019-03-08T23:52:12.469Z,9.40
2019-03-08T23:56:15.478Z,9.50
